Time;durP1;ratioP1;P1;durP2;ratioP2;P2;SDS_P1;SDS_P2;PMS_P1;PMS_P2;Temp;Humidity;BMP_temperature;BMP_pressure;BME280_temperature;BME280_humidity;BME280_pressure;Samples;Min_cycle;Max_cycle;Signal;HPM_P1;HPM_P2
2022/10/12 10:07:34;;;;;;;40.85;17.27;;;;;;;13.58;84.74;97257.91;2098744;27;20562;-66
2022/10/12 10:08:42;;;;;;;51.63;17.90;;;;;;;13.74;84.73;97263.25;2090965;28;20770;-66
2022/10/12 10:09:44;;;;;;;38.85;18.48;;;;;;;13.77;84.31;97250.84;2090903;28;20241;-66
2022/10/12 10:10:48;;;;;;;46.33;18.13;;;;;;;13.98;84.28;97256.84;2088854;28;20706;-66
2022/10/12 10:11:50;;;;;;;37.30;18.20;;;;;;;13.98;83.78;97262.09;2089996;28;20283;-65
2022/10/12 10:12:57;;;;;;;38.17;18.30;;;;;;;13.97;83.34;97254.31;2080620;28;20732;-66
2022/10/12 10:14:00;;;;;;;40.58;18.05;;;;;;;13.92;83.46;97237.94;2088811;28;20204;-65
2022/10/12 10:15:02;;;;;;;37.97;17.75;;;;;;;13.87;83.94;97246.84;2084963;28;20275;-66
2022/10/12 10:16:06;;;;;;;46.88;19.27;;;;;;;14.17;83.32;97254.16;2081208;28;20732;-66
2022/10/12 10:17:13;;;;;;;39.75;15.90;;;;;;;13.84;83.99;97248.78;2082735;28;20296;-66
2022/10/12 10:18:26;;;;;;;36.13;15.75;;;;;;;13.75;85.11;97244.84;2091054;28;20258;-66
2022/10/12 10:19:28;;;;;;;39.50;16.50;;;;;;;14.06;84.47;97251.22;2089163;28;20234;-66
2022/10/12 10:20:48;;;;;;;38.97;16.67;;;;;;;14.03;84.02;97246.13;2089883;28;20302;-66
2022/10/12 10:21:54;;;;;;;36.33;15.60;;;;;;;14.35;82.19;97251.56;2094586;28;20286;-66
2022/10/12 10:22:57;;;;;;;40.67;16.95;;;;;;;14.21;82.63;97253.06;2071195;28;20298;-66
2022/10/12 10:31:20;;;;;;;29.67;14.07;;;;;;;15.57;75.34;97257.50;2081984;28;20177;-68
2022/10/12 10:32:27;;;;;;;31.60;13.15;;;;;;;15.33;76.16;97250.84;2072030;28;20318;-68
2022/10/12 10:33:32;;;;;;;40.85;13.35;;;;;;;15.10;76.93;97244.19;2083140;28;20327;-68
2022/10/12 10:34:33;;;;;;;37.05;14.88;;;;;;;15.02;77.41;97247.25;2087553;28;20288;-68
2022/10/12 10:35:34;;;;;;;30.30;13.32;;;;;;;15.21;77.03;97248.03;2082661;28;20692;-68
2022/10/12 10:36:45;;;;;;;29.92;13.43;;;;;;;14.76;78.94;97253.84;2085928;28;20311;-68
2022/10/12 10:37:55;;;;;;;31.15;13.20;;;;;;;14.80;79.07;97249.28;2077576;28;20316;-68
2022/10/12 10:39:04;;;;;;;38.70;15.00;;;;;;;14.98;79.03;97255.38;2090515;28;20244;-68
2022/10/12 10:40:06;;;;;;;33.97;15.45;;;;;;;14.84;77.99;97243.81;2079327;28;20683;-67
2022/10/12 11:06:17;;;;;;;34.42;11.20;;;;;;;15.16;76.78;97249.13;2092950;28;21044;-65
2022/10/12 11:07:28;;;;;;;28.92;10.45;;;;;;;15.22;76.65;97247.94;2078979;28;20333;-65
2022/10/12 11:08:33;;;;;;;28.55;11.30;;;;;;;15.07;77.18;97246.13;2074269;28;20211;-66
2022/10/12 11:09:42;;;;;;;19.38;10.20;;;;;;;15.21;77.28;97245.41;2066668;28;20701;-67
2022/10/12 11:10:51;;;;;;;29.63;10.52;;;;;;;15.13;76.81;97243.19;2066262;28;20197;-66
2022/10/12 11:11:59;;;;;;;20.20;9.50;;;;;;;15.01;78.13;97226.28;2073352;28;20197;-66
2022/10/12 11:13:22;;;;;;;26.95;10.52;;;;;;;15.26;76.83;97244.25;2056253;28;20685;-66
2022/10/12 11:14:33;;;;;;;26.98;11.13;;;;;;;15.57;76.09;97242.53;2066990;28;20293;-67
2022/10/12 11:15:43;;;;;;;23.33;10.30;;;;;;;15.62;75.39;97244.94;2070344;28;20755;-66
2022/10/12 11:16:54;;;;;;;31.90;11.13;;;;;;;15.56;75.13;97251.38;2065601;28;20185;-66
2022/10/12 11:18:03;;;;;;;37.88;10.55;;;;;;;15.67;75.81;97243.72;2060548;28;20722;-66
2022/10/12 11:19:33;;;;;;;28.00;10.35;;;;;;;15.60;75.82;97241.53;2071790;28;20655;-66
2022/10/12 11:20:46;;;;;;;31.48;10.80;;;;;;;15.57;75.54;97257.50;2066126;28;20340;-66
2022/10/12 11:21:55;;;;;;;28.13;10.63;;;;;;;15.78;74.64;97239.66;2067242;28;20284;-67
2022/10/12 11:23:03;;;;;;;45.08;22.45;;;;;;;15.13;76.74;97249.28;2063587;28;20240;-65
2022/10/12 11:36:04;;;;;;;22.63;8.77;;;;;;;16.61;71.42;97234.03;2064919;28;20183;-70
2022/10/12 11:37:15;;;;;;;22.67;9.68;;;;;;;16.28;71.35;97219.28;2065086;28;20284;-70
2022/10/12 11:38:34;;;;;;;28.08;9.60;;;;;;;16.49;70.55;97228.56;2066504;28;20213;-70
2022/10/12 11:39:42;;;;;;;33.22;10.60;;;;;;;16.69;70.12;97221.22;2064930;28;20292;-70
2022/10/12 11:41:17;;;;;;;20.55;8.27;;;;;;;17.02;68.88;97220.16;2066332;28;20289;-70
2022/10/12 11:48:04;;;;;;;19.25;7.88;;;;;;;17.68;66.72;97215.13;2065861;28;20187;-68
2022/10/12 11:49:30;;;;;;;17.65;8.57;;;;;;;18.33;64.78;97215.38;2062541;28;20310;-68
2022/10/12 11:50:38;;;;;;;17.13;8.20;;;;;;;18.00;66.13;97216.66;2065474;28;20303;-69
2022/10/12 11:51:45;;;;;;;26.20;8.00;;;;;;;18.04;66.02;97216.38;2062440;28;20332;-68
2022/10/12 11:52:50;;;;;;;36.10;10.75;;;;;;;17.98;67.03;97214.13;2059952;28;20307;-68
2022/10/12 12:00:26;;;;;;;23.27;8.95;;;;;;;18.24;65.26;97217.69;2067158;28;20366;-68
2022/10/12 12:01:33;;;;;;;22.98;8.48;;;;;;;17.49;67.62;97218.13;2065713;28;20251;-69
2022/10/12 12:02:41;;;;;;;24.73;8.60;;;;;;;17.92;65.67;97199.50;2059376;28;20356;-68
2022/10/12 12:03:43;;;;;;;16.83;8.27;;;;;;;19.12;62.96;97210.88;2072124;28;20206;-69
2022/10/12 12:04:47;;;;;;;17.20;8.10;;;;;;;18.20;64.73;97186.28;2067951;28;20229;-69
2022/10/12 12:05:48;;;;;;;20.10;8.60;;;;;;;18.25;65.74;97208.81;2066341;28;20267;-68
2022/10/12 12:06:55;;;;;;;18.40;8.00;;;;;;;18.04;65.46;97208.47;2068015;28;20282;-69
2022/10/12 12:07:56;;;;;;;16.17;8.73;;;;;;;18.52;65.49;97205.25;2072034;28;20320;-69
2022/10/12 12:09:17;;;;;;;25.58;9.25;;;;;;;19.20;62.86;97202.41;2074287;28;20225;-69
2022/10/12 12:10:25;;;;;;;20.02;7.95;;;;;;;19.33;62.59;97207.69;2072524;28;20213;-69
2022/10/12 12:11:32;;;;;;;16.92;7.63;;;;;;;19.41;62.83;97202.66;2069661;28;20237;-69
2022/10/12 12:12:33;;;;;;;13.35;6.85;;;;;;;20.49;59.95;97197.41;2056543;28;20234;-69
2022/10/12 12:13:37;;;;;;;21.48;7.93;;;;;;;19.99;60.88;97200.25;2066251;28;20309;-69
2022/10/12 12:14:49;;;;;;;21.25;8.80;;;;;;;19.98;60.71;97195.06;2068008;28;20207;-69
2022/10/12 12:15:51;;;;;;;17.90;7.10;;;;;;;18.97;62.61;97204.00;2067436;28;20634;-69
2022/10/12 12:17:15;;;;;;;18.02;7.18;;;;;;;18.44;63.85;97187.25;2063636;28;20607;-69
2022/10/12 12:25:14;;;;;;;32.30;8.05;;;;;;;21.47;56.20;97192.50;2061453;28;20360;-69
2022/10/12 12:26:18;;;;;;;22.70;9.00;;;;;;;20.04;58.57;97186.66;2060479;28;20254;-67
2022/10/12 12:27:22;;;;;;;16.38;7.78;;;;;;;19.40;60.78;97193.00;2058792;28;20206;-70
2022/10/12 12:28:23;;;;;;;21.40;8.82;;;;;;;19.03;61.31;97180.63;2067620;28;20240;-70
2022/10/12 12:29:29;;;;;;;22.83;9.05;;;;;;;19.16;62.24;97185.91;2064746;28;20206;-70
2022/10/12 12:30:37;;;;;;;15.38;7.93;;;;;;;18.76;62.80;97178.91;2059784;28;20297;-70
2022/10/12 12:31:39;;;;;;;22.95;9.10;;;;;;;18.13;64.72;97187.63;2059045;28;20363;-71
2022/10/12 12:32:45;;;;;;;16.67;8.25;;;;;;;17.92;64.70;97162.50;2050862;28;20761;-71
2022/10/12 12:33:50;;;;;;;16.65;8.52;;;;;;;17.13;67.84;97174.66;2059999;28;20214;-71
2022/10/12 12:34:57;;;;;;;19.70;7.68;;;;;;;16.61;69.00;97170.78;2053567;28;20246;-70
2022/10/12 12:42:35;;;;;;;19.52;7.90;;;;;;;18.75;62.94;97163.16;2058029;28;20216;-70
2022/10/12 12:43:51;;;;;;;19.05;8.00;;;;;;;19.20;61.27;97189.16;2060290;28;20286;-71
2022/10/12 12:44:53;;;;;;;24.33;9.65;;;;;;;20.19;60.42;97172.25;2060409;28;20289;-72
2022/10/12 12:46:07;;;;;;;23.23;8.20;;;;;;;20.95;57.55;97150.56;2060595;28;20216;-71
2022/10/12 12:47:08;;;;;;;25.98;9.13;;;;;;;20.22;58.88;97168.53;2059628;28;20673;-72
2022/10/12 12:48:42;;;;;;;32.35;9.15;;;;;;;19.15;63.24;97170.13;2060981;28;20218;-71
2022/10/12 12:49:51;;;;;;;23.92;7.85;;;;;;;19.25;62.31;97160.56;2060881;28;20282;-72
2022/10/12 12:50:56;;;;;;;29.92;8.82;;;;;;;18.46;63.06;97179.22;2060626;28;20281;-72
2022/10/12 12:51:58;;;;;;;14.88;7.10;;;;;;;19.41;60.99;97149.69;2060957;28;20199;-72
2022/10/12 12:53:05;;;;;;;15.75;7.00;;;;;;;20.16;60.13;97175.16;2056072;28;20229;-72
2022/10/12 12:54:19;;;;;;;17.15;8.05;;;;;;;20.23;58.77;97157.78;2068057;28;20229;-71
2022/10/12 12:56:07;;;;;;;17.20;7.80;;;;;;;20.38;57.72;97166.38;2060741;28;20198;-73
2022/10/12 12:57:17;;;;;;;19.92;8.50;;;;;;;20.67;57.29;97168.63;2067629;28;20226;-72
2022/10/12 12:58:40;;;;;;;16.15;7.60;;;;;;;20.33;58.93;97178.31;2061949;28;20309;-72
2022/10/12 12:59:47;;;;;;;27.50;9.10;;;;;;;19.51;59.72;97171.91;2061272;28;20865;-70
2022/10/12 13:01:05;;;;;;;15.80;6.82;;;;;;;19.98;58.82;97157.97;2059682;28;20680;-69
2022/10/12 13:02:25;;;;;;;26.92;7.75;;;;;;;19.90;59.76;97167.31;2060084;28;20234;-72
2022/10/12 13:03:35;;;;;;;18.38;8.27;;;;;;;20.26;58.95;97167.31;2058502;28;20643;-70
2022/10/12 13:05:06;;;;;;;39.53;14.55;;;;;;;19.92;59.45;97135.41;2060402;28;20207;-67
2022/10/12 13:06:41;;;;;;;32.97;10.95;;;;;;;19.76;59.63;97162.19;2058600;28;20301;-68
2022/10/12 13:08:08;;;;;;;20.55;9.25;;;;;;;19.17;61.87;97166.41;2058747;28;20942;-68
2022/10/12 13:09:25;;;;;;;22.58;9.40;;;;;;;18.47;64.11;97175.63;2067381;28;20247;-67
2022/10/12 13:10:37;;;;;;;25.80;9.30;;;;;;;17.99;65.52;97165.63;2059525;28;20670;-69
2022/10/12 13:11:44;;;;;;;19.85;8.82;;;;;;;17.36;67.50;97164.44;2061233;28;20233;-67
2022/10/12 13:12:45;;;;;;;21.30;8.88;;;;;;;16.99;68.76;97167.59;2051108;28;20789;-68
2022/10/12 13:14:15;;;;;;;20.58;8.43;;;;;;;17.05;68.77;97169.84;2064878;28;20236;-68
2022/10/12 13:15:26;;;;;;;19.90;7.55;;;;;;;16.89;69.88;97166.44;2060030;28;20270;-67
2022/10/12 13:17:02;;;;;;;24.63;9.10;;;;;;;17.09;69.29;97163.44;2058972;28;20192;-68
2022/10/12 13:18:35;;;;;;;20.63;9.48;;;;;;;16.53;70.92;97154.56;2058847;28;20226;-68
2022/10/12 13:19:53;;;;;;;17.10;9.35;;;;;;;16.86;69.53;97156.06;2060870;28;20206;-67
2022/10/12 13:20:56;;;;;;;20.33;9.32;;;;;;;17.19;69.02;97149.66;2059868;28;20705;-67
2022/10/12 13:22:04;;;;;;;24.13;9.20;;;;;;;16.62;70.51;97141.66;2060833;28;20247;-67
2022/10/12 13:23:10;;;;;;;21.13;9.25;;;;;;;16.72;69.82;97154.28;2055347;28;20309;-67
2022/10/12 13:31:27;;;;;;;14.45;7.28;;;;;;;19.69;61.86;97156.50;2059672;28;20194;-67
2022/10/12 13:32:46;;;;;;;26.05;7.82;;;;;;;19.95;61.45;97153.72;2049477;28;20206;-67
2022/10/12 13:33:58;;;;;;;28.50;8.95;;;;;;;20.47;59.49;97158.72;2067778;28;20256;-69
2022/10/12 13:35:05;;;;;;;23.77;9.35;;;;;;;20.36;58.76;97154.22;2061623;28;20834;-69
2022/10/12 13:36:22;;;;;;;21.23;8.93;;;;;;;19.46;61.77;97150.22;2062008;28;20341;-69
2022/10/12 13:37:29;;;;;;;23.10;8.52;;;;;;;20.59;58.62;97148.94;2052057;28;20799;-69
2022/10/12 13:38:33;;;;;;;30.48;9.30;;;;;;;20.06;58.39;97150.25;2068723;28;20198;-70
2022/10/12 13:39:43;;;;;;;23.63;9.50;;;;;;;19.04;61.26;97150.53;2063961;28;20257;-69
2022/10/12 13:41:24;;;;;;;28.48;8.10;;;;;;;17.51;66.09;97142.31;2056432;28;20329;-69
2022/10/12 13:49:15;;;;;;;23.98;8.88;;;;;;;19.96;60.67;97142.19;2059530;28;20242;-65
2022/10/12 13:50:20;;;;;;;16.58;7.63;;;;;;;20.59;59.14;97141.00;2060380;28;20599;-65
2022/10/12 13:51:24;;;;;;;19.52;8.18;;;;;;;20.35;58.91;97105.66;2060849;28;20195;-65
2022/10/12 13:52:32;;;;;;;24.55;8.77;;;;;;;18.92;62.95;97133.75;2052612;28;20238;-65
2022/10/12 13:53:37;;;;;;;21.92;9.10;;;;;;;18.30;63.48;97108.06;2069553;28;20886;-66
2022/10/12 13:54:41;;;;;;;31.60;10.00;;;;;;;18.16;65.02;97147.81;2064134;28;20239;-66
2022/10/12 13:55:58;;;;;;;20.70;8.23;;;;;;;19.32;61.64;97142.44;2058878;28;20282;-65
2022/10/12 13:57:03;;;;;;;27.15;8.63;;;;;;;19.23;61.91;97136.00;2056424;28;20290;-65
2022/10/12 13:58:21;;;;;;;17.17;9.50;;;;;;;19.14;62.24;97144.63;2058173;28;20244;-66
2022/10/12 13:59:25;;;;;;;18.17;8.73;;;;;;;18.44;63.01;97115.03;2066878;28;20288;-66
2022/10/12 14:00:27;;;;;;;20.35;8.77;;;;;;;17.58;66.36;97143.59;2059087;28;20191;-66
2022/10/12 14:01:28;;;;;;;25.65;8.63;;;;;;;17.54;66.86;97139.47;2060094;28;20210;-65
2022/10/12 14:02:33;;;;;;;19.40;9.15;;;;;;;17.26;68.00;97129.84;2048581;28;20259;-65
2022/10/12 14:03:38;;;;;;;23.88;8.25;;;;;;;18.15;65.63;97144.31;2060849;28;20294;-65
2022/10/12 14:04:42;;;;;;;21.20;7.57;;;;;;;17.76;66.09;97138.91;2058766;28;20875;-65
2022/10/12 14:05:44;;;;;;;19.08;8.50;;;;;;;17.82;66.17;97124.44;2063052;28;20321;-65
2022/10/12 14:06:53;;;;;;;19.13;8.52;;;;;;;17.63;66.12;97116.88;2060105;28;20301;-65
2022/10/12 14:08:00;;;;;;;20.33;8.00;;;;;;;17.14;68.34;97137.59;2058664;28;20316;-65
2022/10/12 14:09:42;;;;;;;20.58;7.93;;;;;;;17.41;67.66;97141.22;2063339;28;20238;-65
2022/10/12 14:10:44;;;;;;;24.38;8.70;;;;;;;17.38;67.46;97113.22;2059290;28;20701;-65
2022/10/12 14:11:47;;;;;;;21.52;9.80;;;;;;;17.11;68.79;97124.59;2060259;28;20315;-65
2022/10/12 14:12:51;;;;;;;22.80;8.55;;;;;;;17.97;66.53;97133.19;2055864;28;20360;-65
2022/10/12 14:13:57;;;;;;;16.60;8.25;;;;;;;18.40;65.02;97138.19;2068148;28;20202;-65
2022/10/12 14:14:59;;;;;;;22.67;8.38;;;;;;;18.51;64.61;97132.19;2058132;28;20623;-65
2022/10/12 14:16:04;;;;;;;21.77;10.18;;;;;;;18.74;64.18;97135.00;2056603;28;20317;-65
2022/10/12 14:17:06;;;;;;;22.10;9.18;;;;;;;18.50;64.33;97129.63;2061369;28;20284;-66
2022/10/12 14:25:10;;;;;;;15.18;7.60;;;;;;;19.30;62.26;97125.81;2061895;28;20265;-65
2022/10/12 14:26:39;;;;;;;16.63;8.10;;;;;;;19.85;60.07;97128.88;2059989;28;20277;-67
2022/10/12 14:27:40;;;;;;;71.18;35.85;;;;;;;20.00;60.02;97121.59;2053558;28;20768;-67
2022/10/12 14:28:42;;;;;;;49.10;29.23;;;;;;;19.64;60.63;97124.19;2066499;28;20558;-67
2022/10/12 14:29:45;;;;;;;17.70;8.65;;;;;;;18.76;61.90;97125.16;2059839;28;20230;-68
2022/10/12 14:49:00;;;;;;;22.88;8.15;;;;;;;18.55;64.24;97120.44;2059977;28;20237;-66
2022/10/12 14:50:07;;;;;;;21.25;7.85;;;;;;;18.43;64.66;97118.63;2058083;28;20804;-66
2022/10/12 14:51:08;;;;;;;24.90;8.10;;;;;;;17.96;65.43;97123.56;2059547;28;20213;-66
2022/10/12 14:52:21;;;;;;;21.58;8.30;;;;;;;18.65;63.40;97123.28;2056073;28;20805;-66
2022/10/12 14:53:27;;;;;;;16.27;7.90;;;;;;;18.38;63.78;97126.88;2057506;28;20306;-67
2022/10/12 15:01:02;;;;;;;21.20;8.20;;;;;;;18.51;63.93;97118.97;2060124;28;20202;-66
2022/10/12 15:02:19;;;;;;;27.20;7.25;;;;;;;17.68;66.70;97112.16;2063466;28;20317;-67
2022/10/12 15:03:20;;;;;;;15.05;6.95;;;;;;;18.16;65.92;97118.75;2064817;28;20668;-66
2022/10/12 15:04:21;;;;;;;17.17;8.45;;;;;;;18.19;65.72;97113.22;2058901;28;20638;-65
2022/10/12 15:05:25;;;;;;;18.58;7.70;;;;;;;18.39;65.41;97118.00;2059792;28;20832;-65
2022/10/12 15:13:05;;;;;;;15.40;6.22;;;;;;;17.64;66.03;97102.75;2055479;28;20233;-66
2022/10/12 15:14:09;;;;;;;18.23;7.80;;;;;;;17.62;66.36;97116.06;2066208;28;20220;-66
2022/10/12 15:15:29;;;;;;;26.45;8.00;;;;;;;17.68;66.16;97114.78;2059473;28;20260;-66
2022/10/12 15:16:32;;;;;;;17.63;7.55;;;;;;;18.09;65.26;97103.28;2060025;28;20290;-66
2022/10/12 15:17:35;;;;;;;18.52;6.80;;;;;;;18.33;64.50;97107.00;2049935;28;20249;-66
2022/10/12 15:24:00;;;;;;;20.20;8.15;;;;;;;17.16;68.07;97124.31;2055430;28;20225;-66
2022/10/12 15:25:23;;;;;;;25.10;8.05;;;;;;;17.48;67.30;97116.09;2061006;28;20310;-63
2022/10/12 15:26:25;;;;;;;20.92;7.65;;;;;;;17.50;66.83;97121.31;2059968;28;20285;-64
2022/10/12 15:27:27;;;;;;;14.30;6.80;;;;;;;17.72;66.49;97116.28;2047711;28;20218;-64
2022/10/12 15:28:28;;;;;;;19.80;7.10;;;;;;;17.86;66.20;97111.88;2063921;28;20228;-64
2022/10/12 15:29:30;;;;;;;21.98;6.65;;;;;;;17.33;67.01;97091.56;2063795;28;20210;-65
2022/10/12 15:30:32;;;;;;;15.95;6.78;;;;;;;17.26;68.64;97114.00;2057727;28;20632;-65
2022/10/12 15:31:33;;;;;;;24.52;9.15;;;;;;;17.48;67.35;97121.38;2068737;28;20232;-64
2022/10/12 15:32:39;;;;;;;25.35;8.07;;;;;;;16.97;67.66;97101.72;2056415;28;20313;-64
2022/10/12 15:33:41;;;;;;;17.80;7.10;;;;;;;16.77;68.38;97112.66;2063158;28;20207;-65
2022/10/12 15:34:43;;;;;;;25.10;8.70;;;;;;;16.77;68.43;97105.59;2061835;28;20241;-64
2022/10/12 15:35:44;;;;;;;19.02;7.45;;;;;;;16.63;69.45;97116.13;2063090;28;20241;-64
2022/10/12 15:36:46;;;;;;;22.40;7.65;;;;;;;16.54;70.24;97114.91;2063299;28;20593;-66
2022/10/12 15:37:55;;;;;;;19.60;6.63;;;;;;;16.43;70.76;97115.59;2054679;28;20269;-64
2022/10/12 15:38:56;;;;;;;17.02;6.60;;;;;;;16.39;71.25;97123.75;2068189;28;20197;-64
2022/10/12 15:39:58;;;;;;;23.38;7.10;;;;;;;16.28;71.69;97106.81;2062468;28;20225;-64
2022/10/12 15:40:59;;;;;;;20.17;7.63;;;;;;;16.72;70.97;97125.28;2058282;28;20286;-64
2022/10/12 15:42:01;;;;;;;22.90;8.50;;;;;;;16.82;70.34;97107.94;2059338;28;20796;-64
2022/10/12 15:43:03;;;;;;;14.48;6.20;;;;;;;16.85;70.29;97126.22;2052486;28;20250;-64
2022/10/12 15:44:05;;;;;;;15.30;7.40;;;;;;;16.60;71.11;97114.53;2060863;28;20194;-64
2022/10/12 15:45:33;;;;;;;18.48;7.13;;;;;;;16.59;71.22;97115.47;2061545;28;20227;-64
2022/10/12 15:46:34;;;;;;;19.33;8.18;;;;;;;16.60;70.86;97116.34;2059974;28;20290;-65
2022/10/12 15:47:39;;;;;;;13.88;6.60;;;;;;;16.28;73.32;97113.88;2053735;28;20241;-64
2022/10/12 15:48:42;;;;;;;18.08;7.05;;;;;;;16.33;72.20;97109.19;2066902;28;20306;-65
2022/10/12 15:49:44;;;;;;;13.40;6.25;;;;;;;15.93;72.57;97099.22;2057506;28;20203;-65
2022/10/12 15:50:47;;;;;;;19.90;6.72;;;;;;;15.94;72.95;97108.81;2057717;28;20234;-64
2022/10/12 15:51:52;;;;;;;15.73;6.90;;;;;;;15.74;73.63;97103.84;2058048;28;20290;-64
2022/10/12 15:52:55;;;;;;;18.20;7.35;;;;;;;15.50;74.42;97076.25;2057526;28;20662;-65
2022/10/12 15:53:56;;;;;;;16.42;6.78;;;;;;;15.57;74.84;97096.94;2064751;28;20202;-64
2022/10/12 15:54:58;;;;;;;15.50;6.15;;;;;;;15.53;74.81;97096.28;2059345;28;20195;-64
2022/10/12 15:55:59;;;;;;;13.00;6.07;;;;;;;15.31;75.83;97101.91;2060832;28;20238;-64
2022/10/12 15:57:00;;;;;;;17.75;6.90;;;;;;;15.29;76.06;97106.41;2057466;28;20710;-65
2022/10/12 15:58:06;;;;;;;16.00;6.47;;;;;;;15.16;76.13;97098.34;2055233;28;20222;-64
2022/10/12 15:59:07;;;;;;;18.80;6.82;;;;;;;15.29;76.01;97103.78;2067931;28;20316;-64
2022/10/12 16:00:10;;;;;;;16.10;7.10;;;;;;;15.22;75.99;97092.75;2057684;28;20203;-65
2022/10/12 16:01:17;;;;;;;19.33;6.82;;;;;;;15.20;76.49;97102.50;2058098;28;20290;-64
2022/10/12 16:02:21;;;;;;;13.88;6.60;;;;;;;15.14;76.41;97094.97;2052278;28;20210;-64
2022/10/12 16:03:30;;;;;;;12.43;6.00;;;;;;;14.89;77.11;97092.84;2069151;28;20491;-64
2022/10/12 16:04:31;;;;;;;14.10;6.97;;;;;;;14.69;78.08;97098.25;2065830;28;20248;-64
2022/10/12 16:05:35;;;;;;;10.93;5.85;;;;;;;14.76;77.79;97098.75;2057233;28;21264;-64
2022/10/12 16:06:36;;;;;;;20.98;7.15;;;;;;;14.75;77.95;97104.13;2060481;28;20249;-64
2022/10/12 16:07:38;;;;;;;14.73;6.97;;;;;;;14.76;78.18;97105.81;2049919;28;20252;-64
2022/10/12 16:08:44;;;;;;;15.70;5.90;;;;;;;14.86;78.08;97092.06;2068291;28;20297;-64
2022/10/12 16:09:45;;;;;;;17.98;6.38;;;;;;;15.10;77.40;97096.91;2064431;28;20245;-64
2022/10/12 16:10:47;;;;;;;13.90;6.45;;;;;;;15.30;76.43;97098.44;2060398;28;20238;-64
2022/10/12 16:11:49;;;;;;;15.82;6.65;;;;;;;15.33;76.35;97100.88;2061550;28;20317;-65
2022/10/12 16:12:52;;;;;;;20.30;6.45;;;;;;;15.35;76.12;97100.81;2055240;28;20313;-64
2022/10/12 16:13:53;;;;;;;12.63;6.20;;;;;;;15.34;75.94;97096.47;2067370;28;20203;-64
2022/10/12 16:14:57;;;;;;;25.05;7.38;;;;;;;14.91;76.84;97098.88;2059620;28;20221;-64
2022/10/12 16:15:59;;;;;;;12.23;5.63;;;;;;;14.75;78.04;97104.94;2061709;28;20199;-64
2022/10/12 16:17:03;;;;;;;14.82;7.15;;;;;;;14.63;78.54;97100.34;2068843;28;20202;-64
2022/10/12 16:18:05;;;;;;;14.13;6.10;;;;;;;14.42;79.39;97097.91;2059297;28;20225;-64
2022/10/12 16:19:07;;;;;;;11.18;6.38;;;;;;;14.41;80.11;97106.75;2064668;28;20616;-65
2022/10/12 16:20:09;;;;;;;16.27;7.65;;;;;;;14.54;80.06;97105.16;2058057;28;20248;-66
2022/10/12 16:21:11;;;;;;;14.45;6.57;;;;;;;14.70;78.80;97085.94;2059580;28;20290;-64
2022/10/12 16:22:12;;;;;;;14.55;6.22;;;;;;;14.95;78.28;97105.66;2053151;28;20250;-65
2022/10/12 16:23:17;;;;;;;16.38;6.38;;;;;;;15.07;78.02;97102.34;2055696;28;20305;-65
2022/10/12 16:24:19;;;;;;;14.68;5.90;;;;;;;15.13;77.56;97106.41;2063071;28;20291;-65
2022/10/12 16:25:23;;;;;;;17.67;5.75;;;;;;;15.24;77.29;97111.09;2067830;28;20261;-66
2022/10/12 16:26:26;;;;;;;26.73;7.13;;;;;;;15.21;77.36;97105.97;2060481;28;20745;-64
2022/10/12 16:27:28;;;;;;;12.88;5.75;;;;;;;15.15;77.25;97102.75;2052213;28;20218;-64
2022/10/12 16:28:30;;;;;;;13.50;5.40;;;;;;;15.16;77.20;97107.09;2065407;28;20195;-64
2022/10/12 16:29:40;;;;;;;14.95;6.07;;;;;;;15.15;77.30;97109.81;2062278;28;20654;-66
2022/10/12 16:30:42;;;;;;;13.75;5.53;;;;;;;15.11;77.30;97100.38;2058081;28;20210;-65
2022/10/12 16:31:43;;;;;;;13.98;6.18;;;;;;;15.10;77.21;97110.06;2059658;28;20310;-65
2022/10/12 16:32:45;;;;;;;15.63;6.97;;;;;;;14.96;77.52;97091.59;2054131;28;20226;-65
2022/10/12 16:33:46;;;;;;;10.25;5.25;;;;;;;14.94;77.74;97103.97;2064499;28;20209;-65
2022/10/12 16:34:48;;;;;;;14.35;5.40;;;;;;;14.92;77.94;97108.44;2063190;28;20206;-65
2022/10/12 16:35:52;;;;;;;16.73;5.45;;;;;;;14.75;78.26;97090.97;2060511;28;20353;-69
2022/10/12 16:36:54;;;;;;;17.13;5.03;;;;;;;14.83;78.25;97105.41;2062180;28;20238;-65
2022/10/12 16:37:55;;;;;;;12.15;4.80;;;;;;;14.85;78.11;97107.94;2056613;28;20651;-65
2022/10/12 16:38:57;;;;;;;17.30;5.55;;;;;;;14.80;78.42;97107.34;2069107;28;20282;-65
2022/10/12 16:39:59;;;;;;;11.57;4.88;;;;;;;14.67;78.57;97099.28;2059093;28;20286;-65
2022/10/12 16:41:10;;;;;;;10.98;4.80;;;;;;;14.65;79.08;97109.88;2059776;28;20286;-65
2022/10/12 16:42:11;;;;;;;11.80;5.05;;;;;;;14.58;79.20;97105.00;2057846;28;20199;-65
2022/10/12 16:43:13;;;;;;;12.57;5.05;;;;;;;14.55;79.46;97106.00;2067804;28;20274;-65
2022/10/12 16:44:14;;;;;;;13.60;5.15;;;;;;;14.34;79.49;97086.97;2068029;28;20268;-65
2022/10/12 16:45:16;;;;;;;15.75;4.97;;;;;;;14.33;80.03;97094.00;2061953;28;20753;-65
2022/10/12 16:46:17;;;;;;;13.38;5.22;;;;;;;14.40;79.86;97105.03;2060261;28;20206;-65
2022/10/12 16:47:19;;;;;;;17.00;5.30;;;;;;;14.34;79.91;97108.00;2051727;28;20281;-65
2022/10/12 16:48:20;;;;;;;14.13;5.45;;;;;;;14.34;79.85;97093.06;2065790;28;20290;-65
2022/10/12 16:49:22;;;;;;;12.15;5.68;;;;;;;14.41;79.70;97113.75;2062797;28;20674;-65
2022/10/12 16:50:24;;;;;;;11.77;4.95;;;;;;;14.39;79.74;97115.63;2061168;28;20198;-65
2022/10/12 16:51:26;;;;;;;10.60;4.07;;;;;;;14.30;79.77;97107.28;2060627;28;20270;-65
2022/10/12 16:52:27;;;;;;;25.05;5.05;;;;;;;14.18;80.37;97106.16;2051359;28;20198;-65
2022/10/12 16:53:28;;;;;;;12.70;5.18;;;;;;;14.16;80.62;97108.00;2066332;28;20711;-64
2022/10/12 16:54:30;;;;;;;11.35;4.63;;;;;;;14.17;80.61;97117.59;2063695;28;20325;-65
2022/10/12 16:55:31;;;;;;;14.00;4.63;;;;;;;13.88;81.26;97087.59;2060501;28;20198;-65
2022/10/12 16:56:36;;;;;;;8.88;3.95;;;;;;;14.00;81.43;97114.97;2061165;28;20298;-65
2022/10/12 16:57:40;;;;;;;14.13;4.45;;;;;;;13.60;82.87;97104.72;2048562;28;20219;-65
2022/10/12 16:58:42;;;;;;;8.55;4.38;;;;;;;13.38;83.94;97118.91;2062942;28;20264;-64
2022/10/12 16:59:43;;;;;;;14.75;4.88;;;;;;;13.14;84.67;97092.03;2065711;28;20240;-64
2022/10/12 17:00:44;;;;;;;14.20;5.15;;;;;;;13.09;85.20;97101.03;2066315;28;20789;-64
2022/10/12 17:01:46;;;;;;;15.23;5.03;;;;;;;13.22;84.91;97097.75;2059182;28;20194;-65
2022/10/12 17:02:47;;;;;;;10.52;4.32;;;;;;;13.25;84.87;97112.50;2050422;28;20348;-64
2022/10/12 17:03:54;;;;;;;11.38;4.90;;;;;;;13.13;85.43;97119.19;2061764;28;20234;-64
2022/10/12 17:04:59;;;;;;;9.57;4.82;;;;;;;13.05;85.91;97116.94;2063594;28;20332;-65
2022/10/12 17:06:00;;;;;;;23.40;7.15;;;;;;;13.06;86.08;97115.13;2059691;28;20285;-64
2022/10/12 17:12:04;;;;;;;13.48;4.97;;;;;;;13.10;86.03;97114.06;2061088;28;20183;-64
2022/10/12 17:13:06;;;;;;;13.02;5.32;;;;;;;13.10;85.23;97092.25;2055757;28;20796;-64
2022/10/12 17:14:11;;;;;;;13.90;5.45;;;;;;;13.18;85.20;97116.31;2066775;28;20285;-64
2022/10/12 17:15:13;;;;;;;15.60;4.85;;;;;;;13.20;85.26;97117.97;2060094;28;20241;-64
2022/10/12 17:17:35;;;;;;;18.52;5.40;;;;;;;13.27;84.85;97120.28;2059413;28;20366;-65
2022/10/12 17:30:03;;;;;;;19.85;5.95;;;;;;;13.28;84.35;97114.13;2063100;28;20537;-65
2022/10/12 17:31:07;;;;;;;10.00;4.40;;;;;;;13.04;84.17;97072.44;2060955;28;20226;-65
2022/10/12 17:32:12;;;;;;;16.67;5.13;;;;;;;13.22;84.74;97108.25;2052765;28;20210;-65
2022/10/12 17:33:14;;;;;;;15.38;5.78;;;;;;;13.21;84.56;97110.94;2057502;28;20306;-66
2022/10/12 17:34:36;;;;;;;22.48;5.30;;;;;;;13.03;85.72;97112.69;2059719;28;20281;-65
2022/10/12 17:35:42;;;;;;;14.13;5.88;;;;;;;12.99;85.93;97105.84;2059741;28;20242;-65
2022/10/12 17:36:44;;;;;;;13.77;5.30;;;;;;;13.00;85.60;97105.81;2060457;28;20694;-65
2022/10/12 17:37:45;;;;;;;11.45;5.53;;;;;;;12.89;86.24;97113.31;2054892;28;20234;-65
2022/10/12 17:38:47;;;;;;;14.18;5.55;;;;;;;12.99;85.87;97119.84;2065756;28;20281;-66
2022/10/12 17:39:49;;;;;;;10.75;5.30;;;;;;;13.02;85.51;97118.84;2061152;28;20202;-66
2022/10/12 17:40:50;;;;;;;18.25;6.30;;;;;;;12.99;85.59;97122.44;2060114;28;20203;-65
